sensor_id;sensor_type;location;lat;lon;timestamp;P1;durP1;ratioP1;P2;durP2;ratioP2
12135;SDS011;6131;56.420;15.548;2023-02-25T00:01:53;0.40;;;0.20;;
12135;SDS011;6131;56.420;15.548;2023-02-25T00:04:22;0.40;;;0.10;;
12135;SDS011;6131;56.420;15.548;2023-02-25T00:06:48;0.40;;;0.10;;
12135;SDS011;6131;56.420;15.548;2023-02-25T00:09:14;0.40;;;0.20;;
12135;SDS011;6131;56.420;15.548;2023-02-25T00:11:40;0.43;;;0.23;;
12135;SDS011;6131;56.420;15.548;2023-02-25T00:14:07;0.40;;;0.20;;
12135;SDS011;6131;56.420;15.548;2023-02-25T00:16:33;0.40;;;0.20;;
12135;SDS011;6131;56.420;15.548;2023-02-25T00:18:59;0.40;;;0.20;;
12135;SDS011;6131;56.420;15.548;2023-02-25T00:21:28;0.63;;;0.30;;
12135;SDS011;6131;56.420;15.548;2023-02-25T00:23:54;0.93;;;0.30;;
12135;SDS011;6131;56.420;15.548;2023-02-25T00:26:20;0.40;;;0.30;;
12135;SDS011;6131;56.420;15.548;2023-02-25T00:28:48;0.43;;;0.23;;
12135;SDS011;6131;56.420;15.548;2023-02-25T00:31:15;0.90;;;0.30;;
12135;SDS011;6131;56.420;15.548;2023-02-25T00:33:41;0.40;;;0.30;;
12135;SDS011;6131;56.420;15.548;2023-02-25T00:36:08;0.40;;;0.10;;
12135;SDS011;6131;56.420;15.548;2023-02-25T00:38:35;0.47;;;0.20;;
12135;SDS011;6131;56.420;15.548;2023-02-25T00:41:07;0.77;;;0.30;;
12135;SDS011;6131;56.420;15.548;2023-02-25T00:43:42;0.77;;;0.30;;
12135;SDS011;6131;56.420;15.548;2023-02-25T00:46:11;0.67;;;0.30;;
12135;SDS011;6131;56.420;15.548;2023-02-25T00:48:37;0.60;;;0.30;;
12135;SDS011;6131;56.420;15.548;2023-02-25T00:51:08;0.73;;;0.20;;
12135;SDS011;6131;56.420;15.548;2023-02-25T00:53:34;0.40;;;0.20;;
12135;SDS011;6131;56.420;15.548;2023-02-25T00:56:03;1.23;;;0.30;;
12135;SDS011;6131;56.420;15.548;2023-02-25T00:58:29;0.50;;;0.33;;
12135;SDS011;6131;56.420;15.548;2023-02-25T01:00:55;0.70;;;0.30;;
12135;SDS011;6131;56.420;15.548;2023-02-25T01:03:22;0.40;;;0.20;;
12135;SDS011;6131;56.420;15.548;2023-02-25T01:05:48;0.50;;;0.30;;
12135;SDS011;6131;56.420;15.548;2023-02-25T01:08:15;1.27;;;0.20;;
12135;SDS011;6131;56.420;15.548;2023-02-25T01:10:41;1.73;;;0.13;;
12135;SDS011;6131;56.420;15.548;2023-02-25T01:13:07;0.40;;;0.10;;
12135;SDS011;6131;56.420;15.548;2023-02-25T01:15:34;0.43;;;0.20;;
12135;SDS011;6131;56.420;15.548;2023-02-25T01:18:00;0.63;;;0.30;;
12135;SDS011;6131;56.420;15.548;2023-02-25T01:20:26;0.80;;;0.40;;
12135;SDS011;6131;56.420;15.548;2023-02-25T01:22:53;0.50;;;0.20;;
12135;SDS011;6131;56.420;15.548;2023-02-25T01:25:21;0.40;;;0.30;;
12135;SDS011;6131;56.420;15.548;2023-02-25T01:27:49;0.40;;;0.20;;
12135;SDS011;6131;56.420;15.548;2023-02-25T01:30:19;0.70;;;0.20;;
12135;SDS011;6131;56.420;15.548;2023-02-25T01:32:48;0.50;;;0.30;;
12135;SDS011;6131;56.420;15.548;2023-02-25T01:35:14;0.50;;;0.20;;
12135;SDS011;6131;56.420;15.548;2023-02-25T01:37:40;0.60;;;0.20;;
12135;SDS011;6131;56.420;15.548;2023-02-25T01:40:11;1.73;;;0.33;;
12135;SDS011;6131;56.420;15.548;2023-02-25T01:42:41;0.67;;;0.20;;
12135;SDS011;6131;56.420;15.548;2023-02-25T01:47:42;1.07;;;0.37;;
12135;SDS011;6131;56.420;15.548;2023-02-25T01:50:09;0.60;;;0.30;;
12135;SDS011;6131;56.420;15.548;2023-02-25T01:52:36;0.43;;;0.30;;
12135;SDS011;6131;56.420;15.548;2023-02-25T01:55:02;1.57;;;0.33;;
12135;SDS011;6131;56.420;15.548;2023-02-25T01:57:28;1.13;;;0.60;;
12135;SDS011;6131;56.420;15.548;2023-02-25T01:59:54;0.53;;;0.33;;
12135;SDS011;6131;56.420;15.548;2023-02-25T02:02:21;1.67;;;0.40;;
12135;SDS011;6131;56.420;15.548;2023-02-25T02:04:48;1.53;;;0.43;;
12135;SDS011;6131;56.420;15.548;2023-02-25T02:07:16;0.77;;;0.40;;
12135;SDS011;6131;56.420;15.548;2023-02-25T02:09:43;1.50;;;0.60;;
12135;SDS011;6131;56.420;15.548;2023-02-25T02:12:20;0.53;;;0.30;;
12135;SDS011;6131;56.420;15.548;2023-02-25T02:14:46;0.53;;;0.40;;
12135;SDS011;6131;56.420;15.548;2023-02-25T02:30:32;0.57;;;0.50;;
12135;SDS011;6131;56.420;15.548;2023-02-25T02:33:12;1.70;;;0.60;;
12135;SDS011;6131;56.420;15.548;2023-02-25T02:40:41;0.80;;;0.50;;
12135;SDS011;6131;56.420;15.548;2023-02-25T02:48:32;0.90;;;0.60;;
12135;SDS011;6131;56.420;15.548;2023-02-25T02:51:01;1.53;;;0.80;;
12135;SDS011;6131;56.420;15.548;2023-02-25T02:53:33;1.20;;;0.70;;
12135;SDS011;6131;56.420;15.548;2023-02-25T02:56:02;0.80;;;0.60;;
12135;SDS011;6131;56.420;15.548;2023-02-25T03:01:28;1.53;;;0.70;;
12135;SDS011;6131;56.420;15.548;2023-02-25T03:03:58;1.47;;;0.77;;
12135;SDS011;6131;56.420;15.548;2023-02-25T03:06:29;1.00;;;0.70;;
12135;SDS011;6131;56.420;15.548;2023-02-25T03:09:19;1.10;;;0.73;;
12135;SDS011;6131;56.420;15.548;2023-02-25T03:11:44;2.27;;;0.83;;
12135;SDS011;6131;56.420;15.548;2023-02-25T03:14:11;1.37;;;0.80;;
12135;SDS011;6131;56.420;15.548;2023-02-25T03:16:38;1.20;;;0.80;;
12135;SDS011;6131;56.420;15.548;2023-02-25T03:19:19;1.50;;;0.97;;
12135;SDS011;6131;56.420;15.548;2023-02-25T03:21:56;1.80;;;0.80;;
12135;SDS011;6131;56.420;15.548;2023-02-25T03:24:28;2.03;;;0.70;;
12135;SDS011;6131;56.420;15.548;2023-02-25T03:26:57;1.57;;;0.80;;
12135;SDS011;6131;56.420;15.548;2023-02-25T03:29:23;1.67;;;0.77;;
12135;SDS011;6131;56.420;15.548;2023-02-25T03:31:54;3.00;;;0.97;;
12135;SDS011;6131;56.420;15.548;2023-02-25T03:34:25;1.40;;;0.83;;
12135;SDS011;6131;56.420;15.548;2023-02-25T03:36:57;1.20;;;0.67;;
12135;SDS011;6131;56.420;15.548;2023-02-25T03:39:28;1.70;;;0.80;;
12135;SDS011;6131;56.420;15.548;2023-02-25T03:41:56;1.13;;;0.77;;
12135;SDS011;6131;56.420;15.548;2023-02-25T03:44:29;1.10;;;0.90;;
12135;SDS011;6131;56.420;15.548;2023-02-25T03:46:59;1.13;;;0.90;;
12135;SDS011;6131;56.420;15.548;2023-02-25T03:49:32;1.53;;;0.80;;
12135;SDS011;6131;56.420;15.548;2023-02-25T03:52:00;3.23;;;1.20;;
12135;SDS011;6131;56.420;15.548;2023-02-25T03:54:28;2.40;;;0.80;;
12135;SDS011;6131;56.420;15.548;2023-02-25T03:56:54;3.13;;;1.10;;
12135;SDS011;6131;56.420;15.548;2023-02-25T03:59:20;3.30;;;1.20;;
12135;SDS011;6131;56.420;15.548;2023-02-25T04:01:52;1.80;;;0.73;;
12135;SDS011;6131;56.420;15.548;2023-02-25T04:04:19;1.83;;;1.13;;
12135;SDS011;6131;56.420;15.548;2023-02-25T04:06:45;2.97;;;1.10;;
12135;SDS011;6131;56.420;15.548;2023-02-25T04:09:11;0.93;;;0.70;;
12135;SDS011;6131;56.420;15.548;2023-02-25T04:11:37;3.50;;;1.07;;
12135;SDS011;6131;56.420;15.548;2023-02-25T04:14:03;3.80;;;0.97;;
12135;SDS011;6131;56.420;15.548;2023-02-25T04:16:29;1.40;;;0.80;;
12135;SDS011;6131;56.420;15.548;2023-02-25T04:18:55;2.50;;;0.97;;
12135;SDS011;6131;56.420;15.548;2023-02-25T04:21:27;2.67;;;0.90;;
12135;SDS011;6131;56.420;15.548;2023-02-25T04:23:53;3.00;;;1.13;;
12135;SDS011;6131;56.420;15.548;2023-02-25T04:26:19;1.90;;;0.80;;
12135;SDS011;6131;56.420;15.548;2023-02-25T04:28:46;2.07;;;1.13;;
12135;SDS011;6131;56.420;15.548;2023-02-25T04:31:12;3.37;;;1.10;;
12135;SDS011;6131;56.420;15.548;2023-02-25T04:33:38;1.87;;;1.10;;
12135;SDS011;6131;56.420;15.548;2023-02-25T04:36:04;4.97;;;0.93;;
12135;SDS011;6131;56.420;15.548;2023-02-25T04:38:30;2.37;;;1.00;;
12135;SDS011;6131;56.420;15.548;2023-02-25T04:40:56;2.17;;;0.70;;
12135;SDS011;6131;56.420;15.548;2023-02-25T04:43:22;3.43;;;1.00;;
12135;SDS011;6131;56.420;15.548;2023-02-25T04:45:48;1.67;;;1.03;;
12135;SDS011;6131;56.420;15.548;2023-02-25T04:48:14;1.07;;;0.80;;
12135;SDS011;6131;56.420;15.548;2023-02-25T04:50:40;1.23;;;0.87;;
12135;SDS011;6131;56.420;15.548;2023-02-25T04:53:06;1.60;;;1.00;;
12135;SDS011;6131;56.420;15.548;2023-02-25T04:55:34;1.67;;;0.90;;
12135;SDS011;6131;56.420;15.548;2023-02-25T04:58:00;1.30;;;0.80;;
12135;SDS011;6131;56.420;15.548;2023-02-25T05:00:26;2.73;;;1.20;;
12135;SDS011;6131;56.420;15.548;2023-02-25T05:02:52;1.53;;;0.80;;
12135;SDS011;6131;56.420;15.548;2023-02-25T05:05:18;1.83;;;0.80;;
12135;SDS011;6131;56.420;15.548;2023-02-25T05:07:44;2.60;;;1.00;;
12135;SDS011;6131;56.420;15.548;2023-02-25T05:10:11;2.50;;;0.87;;
12135;SDS011;6131;56.420;15.548;2023-02-25T05:12:38;1.87;;;1.10;;
12135;SDS011;6131;56.420;15.548;2023-02-25T05:15:05;1.70;;;0.90;;
12135;SDS011;6131;56.420;15.548;2023-02-25T05:17:32;1.60;;;1.10;;
12135;SDS011;6131;56.420;15.548;2023-02-25T05:19:59;1.97;;;1.00;;
12135;SDS011;6131;56.420;15.548;2023-02-25T05:22:25;2.07;;;1.10;;
12135;SDS011;6131;56.420;15.548;2023-02-25T05:24:51;2.27;;;1.10;;
12135;SDS011;6131;56.420;15.548;2023-02-25T05:27:17;2.80;;;1.00;;
12135;SDS011;6131;56.420;15.548;2023-02-25T05:29:43;1.50;;;1.10;;
12135;SDS011;6131;56.420;15.548;2023-02-25T05:32:09;2.27;;;1.23;;
12135;SDS011;6131;56.420;15.548;2023-02-25T05:34:35;2.77;;;1.20;;
12135;SDS011;6131;56.420;15.548;2023-02-25T05:37:01;4.00;;;1.10;;
12135;SDS011;6131;56.420;15.548;2023-02-25T05:39:27;1.13;;;0.90;;
12135;SDS011;6131;56.420;15.548;2023-02-25T05:41:53;3.23;;;1.00;;
12135;SDS011;6131;56.420;15.548;2023-02-25T05:44:19;3.07;;;0.90;;
12135;SDS011;6131;56.420;15.548;2023-02-25T05:46:46;1.90;;;1.13;;
12135;SDS011;6131;56.420;15.548;2023-02-25T05:49:12;3.23;;;1.07;;
12135;SDS011;6131;56.420;15.548;2023-02-25T05:51:38;3.43;;;0.83;;
12135;SDS011;6131;56.420;15.548;2023-02-25T05:54:04;1.93;;;1.00;;
12135;SDS011;6131;56.420;15.548;2023-02-25T05:56:30;1.57;;;0.87;;
12135;SDS011;6131;56.420;15.548;2023-02-25T05:58:56;2.13;;;0.90;;
12135;SDS011;6131;56.420;15.548;2023-02-25T06:01:23;3.97;;;1.00;;
12135;SDS011;6131;56.420;15.548;2023-02-25T06:03:51;1.97;;;0.80;;
12135;SDS011;6131;56.420;15.548;2023-02-25T06:06:18;1.00;;;0.80;;
12135;SDS011;6131;56.420;15.548;2023-02-25T06:08:47;1.90;;;0.97;;
12135;SDS011;6131;56.420;15.548;2023-02-25T06:11:16;2.00;;;0.80;;
12135;SDS011;6131;56.420;15.548;2023-02-25T06:13:42;1.83;;;0.93;;
12135;SDS011;6131;56.420;15.548;2023-02-25T06:16:08;1.80;;;0.90;;
12135;SDS011;6131;56.420;15.548;2023-02-25T06:18:34;1.87;;;0.73;;
12135;SDS011;6131;56.420;15.548;2023-02-25T06:21:08;2.63;;;0.83;;
12135;SDS011;6131;56.420;15.548;2023-02-25T06:23:35;2.17;;;0.90;;
12135;SDS011;6131;56.420;15.548;2023-02-25T06:26:01;1.13;;;0.80;;
12135;SDS011;6131;56.420;15.548;2023-02-25T06:28:27;3.57;;;0.90;;
12135;SDS011;6131;56.420;15.548;2023-02-25T06:30:54;3.70;;;0.87;;
12135;SDS011;6131;56.420;15.548;2023-02-25T06:33:20;2.23;;;0.90;;
12135;SDS011;6131;56.420;15.548;2023-02-25T06:35:52;2.53;;;1.00;;
12135;SDS011;6131;56.420;15.548;2023-02-25T06:38:18;2.20;;;0.97;;
12135;SDS011;6131;56.420;15.548;2023-02-25T06:40:45;2.97;;;0.90;;
12135;SDS011;6131;56.420;15.548;2023-02-25T06:43:11;1.63;;;0.80;;
12135;SDS011;6131;56.420;15.548;2023-02-25T06:45:37;2.17;;;1.00;;
12135;SDS011;6131;56.420;15.548;2023-02-25T06:48:03;1.57;;;0.80;;
12135;SDS011;6131;56.420;15.548;2023-02-25T06:50:30;1.30;;;0.60;;
12135;SDS011;6131;56.420;15.548;2023-02-25T06:52:57;1.93;;;0.83;;
12135;SDS011;6131;56.420;15.548;2023-02-25T06:55:23;2.10;;;1.00;;
12135;SDS011;6131;56.420;15.548;2023-02-25T06:57:49;2.63;;;0.83;;
12135;SDS011;6131;56.420;15.548;2023-02-25T07:00:15;1.70;;;0.87;;
12135;SDS011;6131;56.420;15.548;2023-02-25T07:02:41;1.93;;;0.80;;
12135;SDS011;6131;56.420;15.548;2023-02-25T07:05:07;1.57;;;0.90;;
12135;SDS011;6131;56.420;15.548;2023-02-25T07:07:33;2.37;;;0.80;;
12135;SDS011;6131;56.420;15.548;2023-02-25T07:09:59;1.20;;;0.80;;
12135;SDS011;6131;56.420;15.548;2023-02-25T07:12:25;1.33;;;0.80;;
12135;SDS011;6131;56.420;15.548;2023-02-25T07:14:51;1.17;;;0.70;;
12135;SDS011;6131;56.420;15.548;2023-02-25T07:17:17;1.13;;;0.70;;
12135;SDS011;6131;56.420;15.548;2023-02-25T07:19:43;1.00;;;0.67;;
12135;SDS011;6131;56.420;15.548;2023-02-25T07:22:13;0.93;;;0.60;;
12135;SDS011;6131;56.420;15.548;2023-02-25T07:24:40;1.20;;;0.67;;
12135;SDS011;6131;56.420;15.548;2023-02-25T07:27:06;2.23;;;0.80;;
12135;SDS011;6131;56.420;15.548;2023-02-25T07:29:32;1.50;;;0.70;;
12135;SDS011;6131;56.420;15.548;2023-02-25T07:31:58;3.00;;;0.90;;
12135;SDS011;6131;56.420;15.548;2023-02-25T07:34:25;2.77;;;0.90;;
12135;SDS011;6131;56.420;15.548;2023-02-25T07:36:51;1.83;;;0.70;;
12135;SDS011;6131;56.420;15.548;2023-02-25T07:39:17;1.47;;;0.60;;
12135;SDS011;6131;56.420;15.548;2023-02-25T07:41:43;1.33;;;0.60;;
12135;SDS011;6131;56.420;15.548;2023-02-25T07:44:09;1.70;;;0.70;;
12135;SDS011;6131;56.420;15.548;2023-02-25T07:46:35;1.87;;;0.70;;
12135;SDS011;6131;56.420;15.548;2023-02-25T07:49:01;1.37;;;0.80;;
12135;SDS011;6131;56.420;15.548;2023-02-25T07:51:27;1.27;;;0.60;;
12135;SDS011;6131;56.420;15.548;2023-02-25T07:53:54;1.13;;;0.53;;
12135;SDS011;6131;56.420;15.548;2023-02-25T07:56:21;1.67;;;0.70;;
12135;SDS011;6131;56.420;15.548;2023-02-25T07:58:48;1.13;;;0.70;;
12135;SDS011;6131;56.420;15.548;2023-02-25T08:01:18;1.13;;;0.63;;
12135;SDS011;6131;56.420;15.548;2023-02-25T08:03:47;1.10;;;0.60;;
12135;SDS011;6131;56.420;15.548;2023-02-25T08:06:13;0.90;;;0.60;;
12135;SDS011;6131;56.420;15.548;2023-02-25T08:08:39;0.90;;;0.50;;
12135;SDS011;6131;56.420;15.548;2023-02-25T08:11:06;0.83;;;0.67;;
12135;SDS011;6131;56.420;15.548;2023-02-25T08:13:32;1.43;;;0.70;;
12135;SDS011;6131;56.420;15.548;2023-02-25T08:15:58;1.60;;;0.73;;
12135;SDS011;6131;56.420;15.548;2023-02-25T08:18:24;1.23;;;0.50;;
12135;SDS011;6131;56.420;15.548;2023-02-25T08:20:50;1.23;;;0.60;;
12135;SDS011;6131;56.420;15.548;2023-02-25T08:23:16;1.43;;;0.50;;
12135;SDS011;6131;56.420;15.548;2023-02-25T08:25:43;0.80;;;0.57;;
12135;SDS011;6131;56.420;15.548;2023-02-25T08:28:09;1.23;;;0.60;;
12135;SDS011;6131;56.420;15.548;2023-02-25T08:30:35;0.67;;;0.60;;
12135;SDS011;6131;56.420;15.548;2023-02-25T08:33:02;1.40;;;0.53;;
12135;SDS011;6131;56.420;15.548;2023-02-25T08:35:28;0.90;;;0.60;;
12135;SDS011;6131;56.420;15.548;2023-02-25T08:37:54;1.47;;;0.50;;
12135;SDS011;6131;56.420;15.548;2023-02-25T08:40:20;2.47;;;0.40;;
12135;SDS011;6131;56.420;15.548;2023-02-25T08:42:47;2.00;;;0.53;;
12135;SDS011;6131;56.420;15.548;2023-02-25T08:45:13;0.60;;;0.50;;
12135;SDS011;6131;56.420;15.548;2023-02-25T08:47:39;0.93;;;0.60;;
12135;SDS011;6131;56.420;15.548;2023-02-25T08:50:05;1.00;;;0.50;;
12135;SDS011;6131;56.420;15.548;2023-02-25T08:52:32;1.43;;;0.50;;
12135;SDS011;6131;56.420;15.548;2023-02-25T08:55:01;2.03;;;0.53;;
12135;SDS011;6131;56.420;15.548;2023-02-25T08:57:28;0.50;;;0.40;;
12135;SDS011;6131;56.420;15.548;2023-02-25T08:59:54;1.03;;;0.50;;
12135;SDS011;6131;56.420;15.548;2023-02-25T09:02:21;2.20;;;1.00;;
12135;SDS011;6131;56.420;15.548;2023-02-25T09:04:48;1.80;;;0.60;;
12135;SDS011;6131;56.420;15.548;2023-02-25T09:07:14;1.57;;;0.70;;
12135;SDS011;6131;56.420;15.548;2023-02-25T09:09:40;1.57;;;0.80;;
12135;SDS011;6131;56.420;15.548;2023-02-25T09:12:06;2.13;;;0.60;;
12135;SDS011;6131;56.420;15.548;2023-02-25T09:14:32;2.70;;;0.80;;
12135;SDS011;6131;56.420;15.548;2023-02-25T09:17:01;1.27;;;0.57;;
12135;SDS011;6131;56.420;15.548;2023-02-25T09:19:27;2.70;;;0.50;;
12135;SDS011;6131;56.420;15.548;2023-02-25T09:21:53;1.67;;;0.50;;
12135;SDS011;6131;56.420;15.548;2023-02-25T09:24:19;1.33;;;0.43;;
12135;SDS011;6131;56.420;15.548;2023-02-25T09:26:45;2.27;;;0.70;;
12135;SDS011;6131;56.420;15.548;2023-02-25T09:29:11;2.17;;;0.53;;
12135;SDS011;6131;56.420;15.548;2023-02-25T09:31:37;1.13;;;0.50;;
12135;SDS011;6131;56.420;15.548;2023-02-25T09:34:05;2.37;;;0.60;;
12135;SDS011;6131;56.420;15.548;2023-02-25T09:36:31;1.00;;;0.50;;
12135;SDS011;6131;56.420;15.548;2023-02-25T09:38:57;1.40;;;0.70;;
12135;SDS011;6131;56.420;15.548;2023-02-25T09:41:29;1.03;;;0.50;;
12135;SDS011;6131;56.420;15.548;2023-02-25T09:44:00;1.10;;;0.63;;
12135;SDS011;6131;56.420;15.548;2023-02-25T09:46:30;1.00;;;0.70;;
12135;SDS011;6131;56.420;15.548;2023-02-25T09:49:01;1.50;;;0.70;;
12135;SDS011;6131;56.420;15.548;2023-02-25T09:51:32;1.43;;;0.50;;
12135;SDS011;6131;56.420;15.548;2023-02-25T09:56:34;1.07;;;0.53;;
12135;SDS011;6131;56.420;15.548;2023-02-25T09:59:00;1.60;;;0.70;;
12135;SDS011;6131;56.420;15.548;2023-02-25T10:01:36;1.30;;;0.57;;
12135;SDS011;6131;56.420;15.548;2023-02-25T10:04:07;1.30;;;0.53;;
12135;SDS011;6131;56.420;15.548;2023-02-25T10:06:40;1.23;;;0.50;;
12135;SDS011;6131;56.420;15.548;2023-02-25T10:17:04;1.30;;;0.50;;
12135;SDS011;6131;56.420;15.548;2023-02-25T10:19:45;0.60;;;0.33;;
12135;SDS011;6131;56.420;15.548;2023-02-25T10:22:30;1.40;;;0.53;;
12135;SDS011;6131;56.420;15.548;2023-02-25T10:25:21;2.30;;;0.40;;
12135;SDS011;6131;56.420;15.548;2023-02-25T10:27:55;1.70;;;0.50;;
12135;SDS011;6131;56.420;15.548;2023-02-25T10:30:37;2.20;;;0.50;;
12135;SDS011;6131;56.420;15.548;2023-02-25T10:33:41;0.73;;;0.50;;
12135;SDS011;6131;56.420;15.548;2023-02-25T10:36:08;2.23;;;0.40;;
12135;SDS011;6131;56.420;15.548;2023-02-25T10:38:35;0.90;;;0.40;;
12135;SDS011;6131;56.420;15.548;2023-02-25T10:41:02;0.73;;;0.33;;
12135;SDS011;6131;56.420;15.548;2023-02-25T10:43:29;0.90;;;0.40;;
12135;SDS011;6131;56.420;15.548;2023-02-25T10:46:03;0.90;;;0.33;;
12135;SDS011;6131;56.420;15.548;2023-02-25T10:48:34;0.97;;;0.50;;
12135;SDS011;6131;56.420;15.548;2023-02-25T10:53:30;0.90;;;0.53;;
12135;SDS011;6131;56.420;15.548;2023-02-25T10:55:57;0.90;;;0.50;;
12135;SDS011;6131;56.420;15.548;2023-02-25T10:58:25;0.63;;;0.40;;
12135;SDS011;6131;56.420;15.548;2023-02-25T11:00:54;1.40;;;0.50;;
12135;SDS011;6131;56.420;15.548;2023-02-25T11:03:20;1.33;;;0.60;;
12135;SDS011;6131;56.420;15.548;2023-02-25T11:05:48;2.27;;;0.50;;
12135;SDS011;6131;56.420;15.548;2023-02-25T11:08:24;0.40;;;0.30;;
12135;SDS011;6131;56.420;15.548;2023-02-25T11:13:30;1.70;;;0.60;;
12135;SDS011;6131;56.420;15.548;2023-02-25T11:15:59;1.30;;;0.40;;
12135;SDS011;6131;56.420;15.548;2023-02-25T11:18:29;2.13;;;0.50;;
12135;SDS011;6131;56.420;15.548;2023-02-25T11:20:57;0.90;;;0.50;;
12135;SDS011;6131;56.420;15.548;2023-02-25T11:23:34;0.60;;;0.30;;
12135;SDS011;6131;56.420;15.548;2023-02-25T11:26:00;1.23;;;0.40;;
12135;SDS011;6131;56.420;15.548;2023-02-25T11:28:32;2.57;;;0.70;;
12135;SDS011;6131;56.420;15.548;2023-02-25T11:31:06;1.83;;;0.50;;
12135;SDS011;6131;56.420;15.548;2023-02-25T11:33:34;0.80;;;0.43;;
12135;SDS011;6131;56.420;15.548;2023-02-25T11:36:02;0.93;;;0.30;;
12135;SDS011;6131;56.420;15.548;2023-02-25T11:38:39;0.77;;;0.50;;
12135;SDS011;6131;56.420;15.548;2023-02-25T11:41:15;0.70;;;0.50;;
12135;SDS011;6131;56.420;15.548;2023-02-25T11:43:41;2.10;;;0.57;;
12135;SDS011;6131;56.420;15.548;2023-02-25T11:46:18;1.87;;;0.53;;
12135;SDS011;6131;56.420;15.548;2023-02-25T11:49:12;0.97;;;0.40;;
12135;SDS011;6131;56.420;15.548;2023-02-25T11:56:41;0.47;;;0.20;;
12135;SDS011;6131;56.420;15.548;2023-02-25T12:01:50;0.60;;;0.43;;
12135;SDS011;6131;56.420;15.548;2023-02-25T12:25:29;0.53;;;0.27;;
12135;SDS011;6131;56.420;15.548;2023-02-25T12:27:58;0.97;;;0.50;;
12135;SDS011;6131;56.420;15.548;2023-02-25T12:30:44;2.17;;;0.47;;
12135;SDS011;6131;56.420;15.548;2023-02-25T12:52:15;2.73;;;0.50;;
12135;SDS011;6131;56.420;15.548;2023-02-25T12:55:18;0.73;;;0.50;;
12135;SDS011;6131;56.420;15.548;2023-02-25T13:03:13;0.90;;;0.50;;
12135;SDS011;6131;56.420;15.548;2023-02-25T13:21:00;3.00;;;0.60;;
12135;SDS011;6131;56.420;15.548;2023-02-25T13:31:14;0.63;;;0.50;;
12135;SDS011;6131;56.420;15.548;2023-02-25T13:33:46;2.57;;;0.70;;
12135;SDS011;6131;56.420;15.548;2023-02-25T13:36:26;0.70;;;0.40;;
12135;SDS011;6131;56.420;15.548;2023-02-25T13:41:50;1.33;;;0.50;;
12135;SDS011;6131;56.420;15.548;2023-02-25T13:47:02;1.00;;;0.40;;
12135;SDS011;6131;56.420;15.548;2023-02-25T14:05:12;2.37;;;0.60;;
12135;SDS011;6131;56.420;15.548;2023-02-25T14:20:21;1.97;;;0.53;;
12135;SDS011;6131;56.420;15.548;2023-02-25T14:38:32;1.47;;;0.60;;
12135;SDS011;6131;56.420;15.548;2023-02-25T14:41:14;1.43;;;0.73;;
12135;SDS011;6131;56.420;15.548;2023-02-25T14:43:45;1.70;;;0.60;;
12135;SDS011;6131;56.420;15.548;2023-02-25T15:02:19;2.00;;;0.70;;
12135;SDS011;6131;56.420;15.548;2023-02-25T15:04:54;0.90;;;0.50;;
12135;SDS011;6131;56.420;15.548;2023-02-25T15:10:16;1.37;;;0.60;;
12135;SDS011;6131;56.420;15.548;2023-02-25T15:12:54;2.57;;;0.77;;
12135;SDS011;6131;56.420;15.548;2023-02-25T15:20:37;1.83;;;0.50;;
12135;SDS011;6131;56.420;15.548;2023-02-25T15:23:11;1.63;;;0.50;;
12135;SDS011;6131;56.420;15.548;2023-02-25T15:35:49;1.63;;;0.90;;
12135;SDS011;6131;56.420;15.548;2023-02-25T15:41:00;2.33;;;0.63;;
12135;SDS011;6131;56.420;15.548;2023-02-25T15:43:34;1.00;;;0.57;;
12135;SDS011;6131;56.420;15.548;2023-02-25T15:48:32;0.90;;;0.60;;
12135;SDS011;6131;56.420;15.548;2023-02-25T15:50:59;1.33;;;0.40;;
12135;SDS011;6131;56.420;15.548;2023-02-25T16:08:39;2.80;;;0.70;;
12135;SDS011;6131;56.420;15.548;2023-02-25T16:11:06;1.83;;;0.80;;
12135;SDS011;6131;56.420;15.548;2023-02-25T16:13:37;2.43;;;0.60;;
12135;SDS011;6131;56.420;15.548;2023-02-25T16:16:07;1.00;;;0.60;;
12135;SDS011;6131;56.420;15.548;2023-02-25T16:18:35;1.37;;;0.70;;
12135;SDS011;6131;56.420;15.548;2023-02-25T16:21:06;3.40;;;0.60;;
12135;SDS011;6131;56.420;15.548;2023-02-25T16:23:33;1.23;;;0.60;;
12135;SDS011;6131;56.420;15.548;2023-02-25T16:26:08;1.13;;;0.73;;
12135;SDS011;6131;56.420;15.548;2023-02-25T16:34:02;2.30;;;0.60;;
12135;SDS011;6131;56.420;15.548;2023-02-25T16:36:39;1.43;;;0.77;;
12135;SDS011;6131;56.420;15.548;2023-02-25T16:39:15;1.17;;;0.70;;
12135;SDS011;6131;56.420;15.548;2023-02-25T16:41:42;2.67;;;0.80;;
12135;SDS011;6131;56.420;15.548;2023-02-25T16:44:08;1.73;;;0.50;;
12135;SDS011;6131;56.420;15.548;2023-02-25T16:46:41;2.30;;;0.90;;
12135;SDS011;6131;56.420;15.548;2023-02-25T16:49:16;2.07;;;0.70;;
12135;SDS011;6131;56.420;15.548;2023-02-25T16:51:44;3.27;;;0.60;;
12135;SDS011;6131;56.420;15.548;2023-02-25T16:54:21;1.10;;;0.60;;
12135;SDS011;6131;56.420;15.548;2023-02-25T16:56:49;2.03;;;0.90;;
12135;SDS011;6131;56.420;15.548;2023-02-25T16:59:17;3.60;;;0.60;;
12135;SDS011;6131;56.420;15.548;2023-02-25T17:01:53;3.50;;;0.60;;
12135;SDS011;6131;56.420;15.548;2023-02-25T17:04:43;3.13;;;0.70;;
12135;SDS011;6131;56.420;15.548;2023-02-25T17:09:50;2.67;;;1.00;;
12135;SDS011;6131;56.420;15.548;2023-02-25T17:12:28;2.80;;;0.60;;
12135;SDS011;6131;56.420;15.548;2023-02-25T17:14:55;0.80;;;0.50;;
12135;SDS011;6131;56.420;15.548;2023-02-25T17:17:24;2.30;;;0.77;;
12135;SDS011;6131;56.420;15.548;2023-02-25T17:19:51;1.60;;;0.77;;
12135;SDS011;6131;56.420;15.548;2023-02-25T17:22:18;2.93;;;0.63;;
12135;SDS011;6131;56.420;15.548;2023-02-25T17:24:46;3.57;;;0.80;;
12135;SDS011;6131;56.420;15.548;2023-02-25T17:27:13;3.53;;;0.80;;
12135;SDS011;6131;56.420;15.548;2023-02-25T17:29:39;1.83;;;0.60;;
12135;SDS011;6131;56.420;15.548;2023-02-25T17:32:12;1.53;;;0.63;;
12135;SDS011;6131;56.420;15.548;2023-02-25T17:34:43;1.83;;;0.70;;
12135;SDS011;6131;56.420;15.548;2023-02-25T17:37:10;0.90;;;0.57;;
12135;SDS011;6131;56.420;15.548;2023-02-25T17:39:37;1.10;;;0.60;;
12135;SDS011;6131;56.420;15.548;2023-02-25T17:44:48;2.17;;;0.70;;
12135;SDS011;6131;56.420;15.548;2023-02-25T17:47:18;3.13;;;0.60;;
12135;SDS011;6131;56.420;15.548;2023-02-25T17:49:45;1.13;;;0.57;;
12135;SDS011;6131;56.420;15.548;2023-02-25T17:54:45;1.30;;;0.70;;
12135;SDS011;6131;56.420;15.548;2023-02-25T17:57:15;1.83;;;0.50;;
12135;SDS011;6131;56.420;15.548;2023-02-25T17:59:46;7.00;;;0.73;;
12135;SDS011;6131;56.420;15.548;2023-02-25T18:02:25;1.03;;;0.63;;
12135;SDS011;6131;56.420;15.548;2023-02-25T18:05:17;2.20;;;0.60;;
12135;SDS011;6131;56.420;15.548;2023-02-25T18:08:02;3.20;;;0.70;;
12135;SDS011;6131;56.420;15.548;2023-02-25T18:13:01;1.10;;;0.67;;
12135;SDS011;6131;56.420;15.548;2023-02-25T18:15:28;0.70;;;0.50;;
12135;SDS011;6131;56.420;15.548;2023-02-25T18:17:55;1.23;;;0.60;;
12135;SDS011;6131;56.420;15.548;2023-02-25T18:20:32;1.47;;;0.73;;
12135;SDS011;6131;56.420;15.548;2023-02-25T18:23:02;1.20;;;0.57;;
12135;SDS011;6131;56.420;15.548;2023-02-25T18:27:55;2.40;;;0.70;;
12135;SDS011;6131;56.420;15.548;2023-02-25T18:30:22;1.17;;;0.50;;
12135;SDS011;6131;56.420;15.548;2023-02-25T18:32:49;2.37;;;0.90;;
12135;SDS011;6131;56.420;15.548;2023-02-25T18:35:15;1.70;;;0.50;;
12135;SDS011;6131;56.420;15.548;2023-02-25T18:37:45;3.23;;;0.60;;
12135;SDS011;6131;56.420;15.548;2023-02-25T18:40:16;2.10;;;0.80;;
12135;SDS011;6131;56.420;15.548;2023-02-25T18:42:42;1.63;;;0.63;;
12135;SDS011;6131;56.420;15.548;2023-02-25T18:45:15;1.53;;;0.90;;
12135;SDS011;6131;56.420;15.548;2023-02-25T18:47:41;0.67;;;0.50;;
12135;SDS011;6131;56.420;15.548;2023-02-25T18:50:08;1.33;;;0.53;;
12135;SDS011;6131;56.420;15.548;2023-02-25T18:52:34;2.07;;;0.80;;
12135;SDS011;6131;56.420;15.548;2023-02-25T18:55:00;2.10;;;0.80;;
12135;SDS011;6131;56.420;15.548;2023-02-25T18:57:26;2.97;;;0.70;;
12135;SDS011;6131;56.420;15.548;2023-02-25T18:59:55;1.00;;;0.70;;
12135;SDS011;6131;56.420;15.548;2023-02-25T19:02:23;2.60;;;0.80;;